sensor_id;sensor_type;location;lat;lon;timestamp;pressure;altitude;pressure_sealevel;temperature;humidity
75089;BME280;63673;49.928;8.150;2023-05-07T00:00:10;990.66;;;14.53;100
75089;BME280;63673;49.928;8.150;2023-05-07T00:01:11;990.61;;;14.51;100
75089;BME280;63673;49.928;8.150;2023-05-07T00:02:12;990.61;;;14.51;100
75089;BME280;63673;49.928;8.150;2023-05-07T00:05:13;990.64;;;14.47;100
75089;BME280;63673;49.928;8.150;2023-05-07T00:06:15;990.59;;;14.45;100
75089;BME280;63673;49.928;8.150;2023-05-07T00:07:17;990.63;;;14.44;100
75089;BME280;63673;49.928;8.150;2023-05-07T00:08:19;990.63;;;14.42;100
75089;BME280;63673;49.928;8.150;2023-05-07T00:09:21;990.62;;;14.41;100
75089;BME280;63673;49.928;8.150;2023-05-07T00:10:22;990.6;;;14.39;100
75089;BME280;63673;49.928;8.150;2023-05-07T00:11:24;990.64;;;14.37;100
75089;BME280;63673;49.928;8.150;2023-05-07T00:12:26;990.64;;;14.35;100
75089;BME280;63673;49.928;8.150;2023-05-07T00:13:28;990.63;;;14.33;100
75089;BME280;63673;49.928;8.150;2023-05-07T00:14:29;990.56;;;14.31;100
75089;BME280;63673;49.928;8.150;2023-05-07T00:15:31;990.62;;;14.3;100
75089;BME280;63673;49.928;8.150;2023-05-07T00:16:33;990.63;;;14.28;100
75089;BME280;63673;49.928;8.150;2023-05-07T00:17:34;990.59;;;14.25;100
75089;BME280;63673;49.928;8.150;2023-05-07T00:18:36;990.6;;;14.23;100
75089;BME280;63673;49.928;8.150;2023-05-07T00:19:38;990.61;;;14.21;100
75089;BME280;63673;49.928;8.150;2023-05-07T00:20:40;990.56;;;14.18;100
75089;BME280;63673;49.928;8.150;2023-05-07T00:21:41;990.61;;;14.16;100
75089;BME280;63673;49.928;8.150;2023-05-07T00:22:43;990.62;;;14.14;100
75089;BME280;63673;49.928;8.150;2023-05-07T00:23:45;990.64;;;14.11;100
75089;BME280;63673;49.928;8.150;2023-05-07T00:24:47;990.62;;;14.08;100
75089;BME280;63673;49.928;8.150;2023-05-07T00:25:48;990.64;;;14.06;100
75089;BME280;63673;49.928;8.150;2023-05-07T00:26:50;990.61;;;14.04;100
75089;BME280;63673;49.928;8.150;2023-05-07T00:27:52;990.61;;;14.02;100
75089;BME280;63673;49.928;8.150;2023-05-07T00:28:54;990.6;;;14;100
75089;BME280;63673;49.928;8.150;2023-05-07T00:29:55;990.58;;;13.99;100
75089;BME280;63673;49.928;8.150;2023-05-07T00:30:57;990.55;;;13.98;100
75089;BME280;63673;49.928;8.150;2023-05-07T00:31:59;990.48;;;13.97;100
75089;BME280;63673;49.928;8.150;2023-05-07T00:33:00;990.51;;;13.97;100
75089;BME280;63673;49.928;8.150;2023-05-07T00:34:02;990.45;;;13.96;100
75089;BME280;63673;49.928;8.150;2023-05-07T00:35:04;990.49;;;13.96;100
75089;BME280;63673;49.928;8.150;2023-05-07T00:36:06;990.46;;;13.96;100
75089;BME280;63673;49.928;8.150;2023-05-07T00:37:07;990.51;;;13.96;100
75089;BME280;63673;49.928;8.150;2023-05-07T00:38:09;990.5;;;13.95;100
75089;BME280;63673;49.928;8.150;2023-05-07T00:39:11;990.53;;;13.94;100
75089;BME280;63673;49.928;8.150;2023-05-07T00:40:13;990.53;;;13.94;100
75089;BME280;63673;49.928;8.150;2023-05-07T00:41:14;990.52;;;13.93;100
75089;BME280;63673;49.928;8.150;2023-05-07T00:42:16;990.53;;;13.91;100
75089;BME280;63673;49.928;8.150;2023-05-07T00:43:18;990.51;;;13.92;100
75089;BME280;63673;49.928;8.150;2023-05-07T00:44:20;990.53;;;13.91;100
75089;BME280;63673;49.928;8.150;2023-05-07T00:45:21;990.55;;;13.9;100
75089;BME280;63673;49.928;8.150;2023-05-07T00:46:23;990.59;;;13.91;100
75089;BME280;63673;49.928;8.150;2023-05-07T00:47:25;990.53;;;13.89;100
75089;BME280;63673;49.928;8.150;2023-05-07T00:48:27;990.5;;;13.9;100
75089;BME280;63673;49.928;8.150;2023-05-07T00:49:30;990.57;;;13.9;100
75089;BME280;63673;49.928;8.150;2023-05-07T00:50:31;990.56;;;13.89;100
75089;BME280;63673;49.928;8.150;2023-05-07T00:51:32;990.59;;;13.88;100
75089;BME280;63673;49.928;8.150;2023-05-07T00:52:33;990.56;;;13.87;100
75089;BME280;63673;49.928;8.150;2023-05-07T00:53:35;990.56;;;13.86;100
75089;BME280;63673;49.928;8.150;2023-05-07T00:54:37;990.51;;;13.85;100
75089;BME280;63673;49.928;8.150;2023-05-07T00:55:39;990.47;;;13.84;100
75089;BME280;63673;49.928;8.150;2023-05-07T00:56:40;990.44;;;13.84;100
75089;BME280;63673;49.928;8.150;2023-05-07T00:57:42;990.47;;;13.83;100
75089;BME280;63673;49.928;8.150;2023-05-07T00:58:44;990.44;;;13.83;100
75089;BME280;63673;49.928;8.150;2023-05-07T00:59:46;990.42;;;13.82;100
75089;BME280;63673;49.928;8.150;2023-05-07T01:00:47;990.45;;;13.81;100
75089;BME280;63673;49.928;8.150;2023-05-07T01:01:49;990.43;;;13.8;100
75089;BME280;63673;49.928;8.150;2023-05-07T01:02:51;990.45;;;13.79;100
75089;BME280;63673;49.928;8.150;2023-05-07T01:03:52;990.43;;;13.79;100
75089;BME280;63673;49.928;8.150;2023-05-07T01:04:54;990.44;;;13.78;100
75089;BME280;63673;49.928;8.150;2023-05-07T01:05:56;990.43;;;13.79;100
75089;BME280;63673;49.928;8.150;2023-05-07T01:06:58;990.45;;;13.78;100
75089;BME280;63673;49.928;8.150;2023-05-07T01:07:59;990.43;;;13.78;100
75089;BME280;63673;49.928;8.150;2023-05-07T01:09:01;990.4;;;13.78;100
75089;BME280;63673;49.928;8.150;2023-05-07T01:10:03;990.47;;;13.79;100
75089;BME280;63673;49.928;8.150;2023-05-07T01:11:05;990.44;;;13.79;100
75089;BME280;63673;49.928;8.150;2023-05-07T01:12:07;990.43;;;13.8;100
75089;BME280;63673;49.928;8.150;2023-05-07T01:13:08;990.49;;;13.8;100
75089;BME280;63673;49.928;8.150;2023-05-07T01:14:10;990.51;;;13.81;100
75089;BME280;63673;49.928;8.150;2023-05-07T01:15:12;990.47;;;13.82;100
75089;BME280;63673;49.928;8.150;2023-05-07T01:16:13;990.49;;;13.82;100
75089;BME280;63673;49.928;8.150;2023-05-07T01:17:15;990.47;;;13.82;100
75089;BME280;63673;49.928;8.150;2023-05-07T01:18:17;990.42;;;13.82;100
75089;BME280;63673;49.928;8.150;2023-05-07T01:19:19;990.48;;;13.83;100
75089;BME280;63673;49.928;8.150;2023-05-07T01:20:20;990.47;;;13.83;100
75089;BME280;63673;49.928;8.150;2023-05-07T01:21:23;990.44;;;13.83;100
75089;BME280;63673;49.928;8.150;2023-05-07T01:22:27;990.46;;;13.83;100
75089;BME280;63673;49.928;8.150;2023-05-07T01:23:25;990.46;;;13.84;100
75089;BME280;63673;49.928;8.150;2023-05-07T01:24:27;990.4;;;13.84;100
75089;BME280;63673;49.928;8.150;2023-05-07T01:25:29;990.35;;;13.83;100
75089;BME280;63673;49.928;8.150;2023-05-07T01:26:31;990.33;;;13.82;100
75089;BME280;63673;49.928;8.150;2023-05-07T01:27:32;990.35;;;13.81;100
75089;BME280;63673;49.928;8.150;2023-05-07T01:28:34;990.28;;;13.81;100
75089;BME280;63673;49.928;8.150;2023-05-07T01:29:36;990.3;;;13.79;100
75089;BME280;63673;49.928;8.150;2023-05-07T01:30:45;990.31;;;13.79;100
75089;BME280;63673;49.928;8.150;2023-05-07T01:31:39;990.31;;;13.78;100
75089;BME280;63673;49.928;8.150;2023-05-07T01:32:42;990.29;;;13.77;100
75089;BME280;63673;49.928;8.150;2023-05-07T01:33:43;990.3;;;13.76;100
75089;BME280;63673;49.928;8.150;2023-05-07T01:34:45;990.3;;;13.75;100
75089;BME280;63673;49.928;8.150;2023-05-07T01:35:47;990.29;;;13.75;100
75089;BME280;63673;49.928;8.150;2023-05-07T01:36:48;990.27;;;13.73;100
75089;BME280;63673;49.928;8.150;2023-05-07T01:37:50;990.24;;;13.71;100
75089;BME280;63673;49.928;8.150;2023-05-07T01:38:51;990.22;;;13.69;100
75089;BME280;63673;49.928;8.150;2023-05-07T01:39:53;990.24;;;13.68;100
75089;BME280;63673;49.928;8.150;2023-05-07T01:40:55;990.21;;;13.66;100
75089;BME280;63673;49.928;8.150;2023-05-07T01:41:57;990.18;;;13.64;100
75089;BME280;63673;49.928;8.150;2023-05-07T01:42:58;990.19;;;13.61;100
75089;BME280;63673;49.928;8.150;2023-05-07T01:44:00;990.23;;;13.58;100
75089;BME280;63673;49.928;8.150;2023-05-07T01:45:02;990.21;;;13.57;100
75089;BME280;63673;49.928;8.150;2023-05-07T01:46:04;990.22;;;13.54;100
75089;BME280;63673;49.928;8.150;2023-05-07T01:47:06;990.19;;;13.51;100
75089;BME280;63673;49.928;8.150;2023-05-07T01:48:10;990.17;;;13.48;100
75089;BME280;63673;49.928;8.150;2023-05-07T01:49:09;990.18;;;13.45;100
75089;BME280;63673;49.928;8.150;2023-05-07T01:50:11;990.17;;;13.44;100
75089;BME280;63673;49.928;8.150;2023-05-07T01:51:12;990.19;;;13.42;100
75089;BME280;63673;49.928;8.150;2023-05-07T01:52:14;990.19;;;13.4;100
75089;BME280;63673;49.928;8.150;2023-05-07T01:53:16;990.19;;;13.38;100
75089;BME280;63673;49.928;8.150;2023-05-07T01:54:17;990.15;;;13.36;100
75089;BME280;63673;49.928;8.150;2023-05-07T01:55:19;990.14;;;13.34;100
75089;BME280;63673;49.928;8.150;2023-05-07T01:56:21;990.16;;;13.33;100
75089;BME280;63673;49.928;8.150;2023-05-07T01:57:23;990.14;;;13.32;100
75089;BME280;63673;49.928;8.150;2023-05-07T01:58:24;990.18;;;13.31;100
75089;BME280;63673;49.928;8.150;2023-05-07T01:59:26;990.21;;;13.31;100
75089;BME280;63673;49.928;8.150;2023-05-07T02:00:28;990.19;;;13.3;100
75089;BME280;63673;49.928;8.150;2023-05-07T02:01:30;990.2;;;13.3;100
75089;BME280;63673;49.928;8.150;2023-05-07T02:02:31;990.28;;;13.29;100
75089;BME280;63673;49.928;8.150;2023-05-07T02:03:33;990.27;;;13.29;100
75089;BME280;63673;49.928;8.150;2023-05-07T02:04:35;990.3;;;13.29;100
75089;BME280;63673;49.928;8.150;2023-05-07T02:05:37;990.32;;;13.29;100
75089;BME280;63673;49.928;8.150;2023-05-07T02:06:38;990.32;;;13.29;100
75089;BME280;63673;49.928;8.150;2023-05-07T02:07:40;990.32;;;13.29;100
75089;BME280;63673;49.928;8.150;2023-05-07T02:08:42;990.31;;;13.3;100
75089;BME280;63673;49.928;8.150;2023-05-07T02:09:43;990.29;;;13.31;100
75089;BME280;63673;49.928;8.150;2023-05-07T02:10:45;990.26;;;13.31;100
75089;BME280;63673;49.928;8.150;2023-05-07T02:11:47;990.24;;;13.32;100
75089;BME280;63673;49.928;8.150;2023-05-07T02:12:49;990.3;;;13.32;100
75089;BME280;63673;49.928;8.150;2023-05-07T02:13:50;990.24;;;13.34;100
75089;BME280;63673;49.928;8.150;2023-05-07T02:14:52;990.28;;;13.33;100
75089;BME280;63673;49.928;8.150;2023-05-07T02:15:54;990.22;;;13.34;100
75089;BME280;63673;49.928;8.150;2023-05-07T02:16:56;990.26;;;13.35;100
75089;BME280;63673;49.928;8.150;2023-05-07T02:17:58;990.25;;;13.36;100
75089;BME280;63673;49.928;8.150;2023-05-07T02:18:59;990.32;;;13.37;100
75089;BME280;63673;49.928;8.150;2023-05-07T02:20:01;990.35;;;13.38;100
75089;BME280;63673;49.928;8.150;2023-05-07T02:21:03;990.39;;;13.39;100
75089;BME280;63673;49.928;8.150;2023-05-07T02:22:04;990.41;;;13.39;100
75089;BME280;63673;49.928;8.150;2023-05-07T02:23:06;990.32;;;13.4;100
75089;BME280;63673;49.928;8.150;2023-05-07T02:24:08;990.31;;;13.4;100
75089;BME280;63673;49.928;8.150;2023-05-07T02:25:10;990.31;;;13.42;100
75089;BME280;63673;49.928;8.150;2023-05-07T02:26:11;990.28;;;13.43;100
75089;BME280;63673;49.928;8.150;2023-05-07T02:27:13;990.28;;;13.43;100
75089;BME280;63673;49.928;8.150;2023-05-07T02:28:15;990.3;;;13.43;100
75089;BME280;63673;49.928;8.150;2023-05-07T02:29:16;990.3;;;13.44;100
75089;BME280;63673;49.928;8.150;2023-05-07T02:30:18;990.31;;;13.45;100
75089;BME280;63673;49.928;8.150;2023-05-07T02:31:20;990.31;;;13.45;100
75089;BME280;63673;49.928;8.150;2023-05-07T02:32:22;990.3;;;13.45;100
75089;BME280;63673;49.928;8.150;2023-05-07T02:33:23;990.32;;;13.46;100
75089;BME280;63673;49.928;8.150;2023-05-07T02:34:25;990.27;;;13.47;100
75089;BME280;63673;49.928;8.150;2023-05-07T02:35:27;990.3;;;13.48;100
75089;BME280;63673;49.928;8.150;2023-05-07T02:36:29;990.3;;;13.49;100
75089;BME280;63673;49.928;8.150;2023-05-07T02:37:30;990.3;;;13.5;100
75089;BME280;63673;49.928;8.150;2023-05-07T02:38:32;990.3;;;13.51;100
75089;BME280;63673;49.928;8.150;2023-05-07T02:39:34;990.24;;;13.52;100
75089;BME280;63673;49.928;8.150;2023-05-07T02:40:36;990.29;;;13.52;100
75089;BME280;63673;49.928;8.150;2023-05-07T02:41:37;990.3;;;13.54;100
75089;BME280;63673;49.928;8.150;2023-05-07T02:42:39;990.29;;;13.55;100
75089;BME280;63673;49.928;8.150;2023-05-07T02:43:41;990.26;;;13.55;100
75089;BME280;63673;49.928;8.150;2023-05-07T02:44:42;990.29;;;13.56;100
75089;BME280;63673;49.928;8.150;2023-05-07T02:45:44;990.28;;;13.57;100
75089;BME280;63673;49.928;8.150;2023-05-07T02:46:46;990.31;;;13.58;100
75089;BME280;63673;49.928;8.150;2023-05-07T02:47:48;990.31;;;13.59;100
75089;BME280;63673;49.928;8.150;2023-05-07T02:48:49;990.3;;;13.6;100
75089;BME280;63673;49.928;8.150;2023-05-07T02:49:51;990.31;;;13.61;100
75089;BME280;63673;49.928;8.150;2023-05-07T02:50:53;990.29;;;13.62;100
75089;BME280;63673;49.928;8.150;2023-05-07T02:51:55;990.3;;;13.63;100
75089;BME280;63673;49.928;8.150;2023-05-07T02:52:56;990.29;;;13.63;100
75089;BME280;63673;49.928;8.150;2023-05-07T02:53:58;990.26;;;13.65;100
75089;BME280;63673;49.928;8.150;2023-05-07T02:55:00;990.29;;;13.65;100
75089;BME280;63673;49.928;8.150;2023-05-07T02:56:02;990.27;;;13.66;100
75089;BME280;63673;49.928;8.150;2023-05-07T02:57:03;990.27;;;13.67;100
75089;BME280;63673;49.928;8.150;2023-05-07T02:58:05;990.28;;;13.68;100
75089;BME280;63673;49.928;8.150;2023-05-07T02:59:07;990.24;;;13.69;100
75089;BME280;63673;49.928;8.150;2023-05-07T03:00:10;990.27;;;13.7;100
75089;BME280;63673;49.928;8.150;2023-05-07T03:01:10;990.25;;;13.71;100
75089;BME280;63673;49.928;8.150;2023-05-07T03:02:12;990.23;;;13.72;100
75089;BME280;63673;49.928;8.150;2023-05-07T03:03:14;990.25;;;13.73;100
75089;BME280;63673;49.928;8.150;2023-05-07T03:04:15;990.28;;;13.74;100
75089;BME280;63673;49.928;8.150;2023-05-07T03:05:17;990.3;;;13.75;100
75089;BME280;63673;49.928;8.150;2023-05-07T03:06:19;990.26;;;13.76;100
75089;BME280;63673;49.928;8.150;2023-05-07T03:07:21;990.29;;;13.77;100
75089;BME280;63673;49.928;8.150;2023-05-07T03:08:22;990.27;;;13.79;100
75089;BME280;63673;49.928;8.150;2023-05-07T03:09:24;990.24;;;13.79;100
75089;BME280;63673;49.928;8.150;2023-05-07T03:10:26;990.23;;;13.79;100
75089;BME280;63673;49.928;8.150;2023-05-07T03:11:28;990.21;;;13.8;100
75089;BME280;63673;49.928;8.150;2023-05-07T03:12:29;990.22;;;13.8;100
75089;BME280;63673;49.928;8.150;2023-05-07T03:13:31;990.22;;;13.81;100
75089;BME280;63673;49.928;8.150;2023-05-07T03:14:33;990.23;;;13.81;100
75089;BME280;63673;49.928;8.150;2023-05-07T03:15:34;990.19;;;13.83;100
75089;BME280;63673;49.928;8.150;2023-05-07T03:16:37;990.19;;;13.84;100
75089;BME280;63673;49.928;8.150;2023-05-07T03:17:38;990.16;;;13.84;100
75089;BME280;63673;49.928;8.150;2023-05-07T03:18:40;990.16;;;13.86;100
75089;BME280;63673;49.928;8.150;2023-05-07T03:19:41;990.13;;;13.85;100
75089;BME280;63673;49.928;8.150;2023-05-07T03:20:43;990.13;;;13.88;100
75089;BME280;63673;49.928;8.150;2023-05-07T03:21:45;990.11;;;13.88;100
75089;BME280;63673;49.928;8.150;2023-05-07T03:22:47;990.13;;;13.89;100
75089;BME280;63673;49.928;8.150;2023-05-07T03:23:48;990.09;;;13.89;100
75089;BME280;63673;49.928;8.150;2023-05-07T03:24:50;990.13;;;13.9;100
75089;BME280;63673;49.928;8.150;2023-05-07T03:25:52;990.12;;;13.91;100
75089;BME280;63673;49.928;8.150;2023-05-07T03:26:54;990.09;;;13.92;100
75089;BME280;63673;49.928;8.150;2023-05-07T03:27:55;990.01;;;13.91;100
75089;BME280;63673;49.928;8.150;2023-05-07T03:28:57;990.05;;;13.93;100
75089;BME280;63673;49.928;8.150;2023-05-07T03:29:59;990.03;;;13.93;100
75089;BME280;63673;49.928;8.150;2023-05-07T03:31:01;989.97;;;13.94;100
75089;BME280;63673;49.928;8.150;2023-05-07T03:32:02;990;;;13.94;100
75089;BME280;63673;49.928;8.150;2023-05-07T03:33:04;989.99;;;13.95;100
75089;BME280;63673;49.928;8.150;2023-05-07T03:34:06;989.94;;;13.95;100
75089;BME280;63673;49.928;8.150;2023-05-07T03:35:07;989.97;;;13.96;100
75089;BME280;63673;49.928;8.150;2023-05-07T03:36:09;989.94;;;13.96;100
75089;BME280;63673;49.928;8.150;2023-05-07T03:37:11;989.95;;;13.96;100
75089;BME280;63673;49.928;8.150;2023-05-07T03:38:12;989.96;;;13.97;100
75089;BME280;63673;49.928;8.150;2023-05-07T03:39:14;989.98;;;13.96;100
75089;BME280;63673;49.928;8.150;2023-05-07T03:40:16;989.96;;;13.97;100
75089;BME280;63673;49.928;8.150;2023-05-07T03:41:18;989.97;;;13.97;100
75089;BME280;63673;49.928;8.150;2023-05-07T03:42:19;989.98;;;13.96;100
75089;BME280;63673;49.928;8.150;2023-05-07T03:43:21;989.96;;;13.97;100
75089;BME280;63673;49.928;8.150;2023-05-07T03:44:23;989.94;;;13.97;100
75089;BME280;63673;49.928;8.150;2023-05-07T03:45:25;989.92;;;13.98;100
75089;BME280;63673;49.928;8.150;2023-05-07T03:46:26;989.9;;;13.97;100
75089;BME280;63673;49.928;8.150;2023-05-07T03:47:28;989.91;;;13.97;100
75089;BME280;63673;49.928;8.150;2023-05-07T03:48:30;989.91;;;13.98;100
75089;BME280;63673;49.928;8.150;2023-05-07T03:49:32;989.88;;;13.98;100
75089;BME280;63673;49.928;8.150;2023-05-07T03:50:33;989.93;;;13.98;100
75089;BME280;63673;49.928;8.150;2023-05-07T03:51:35;989.91;;;13.97;100
75089;BME280;63673;49.928;8.150;2023-05-07T03:52:37;989.95;;;13.98;100
75089;BME280;63673;49.928;8.150;2023-05-07T03:53:38;989.97;;;13.99;100
75089;BME280;63673;49.928;8.150;2023-05-07T03:54:40;989.96;;;13.99;100
75089;BME280;63673;49.928;8.150;2023-05-07T03:55:42;990;;;13.99;100
75089;BME280;63673;49.928;8.150;2023-05-07T03:56:44;989.98;;;13.99;100
75089;BME280;63673;49.928;8.150;2023-05-07T03:57:45;989.96;;;13.99;100
75089;BME280;63673;49.928;8.150;2023-05-07T03:58:47;989.98;;;14;100
75089;BME280;63673;49.928;8.150;2023-05-07T03:59:49;989.95;;;14.01;100
75089;BME280;63673;49.928;8.150;2023-05-07T04:00:51;990.02;;;14.01;100
75089;BME280;63673;49.928;8.150;2023-05-07T04:01:52;990;;;14;100
75089;BME280;63673;49.928;8.150;2023-05-07T04:02:54;990.02;;;14.02;100
75089;BME280;63673;49.928;8.150;2023-05-07T04:03:56;990;;;14.01;100
75089;BME280;63673;49.928;8.150;2023-05-07T04:04:58;990.05;;;14.01;100
75089;BME280;63673;49.928;8.150;2023-05-07T04:05:59;990.07;;;14.01;100
75089;BME280;63673;49.928;8.150;2023-05-07T04:07:01;990.1;;;14.02;100
75089;BME280;63673;49.928;8.150;2023-05-07T04:08:03;990.09;;;14.02;100
75089;BME280;63673;49.928;8.150;2023-05-07T04:09:04;990.09;;;14.02;100
75089;BME280;63673;49.928;8.150;2023-05-07T04:10:06;990.15;;;14.03;100
75089;BME280;63673;49.928;8.150;2023-05-07T04:11:08;990.13;;;14.03;100
75089;BME280;63673;49.928;8.150;2023-05-07T04:12:10;990.16;;;14.03;100
75089;BME280;63673;49.928;8.150;2023-05-07T04:13:11;990.14;;;14.03;100
75089;BME280;63673;49.928;8.150;2023-05-07T04:14:13;990.14;;;14.03;100
75089;BME280;63673;49.928;8.150;2023-05-07T04:15:15;990.19;;;14.05;100
75089;BME280;63673;49.928;8.150;2023-05-07T04:16:17;990.22;;;14.04;100
75089;BME280;63673;49.928;8.150;2023-05-07T04:17:18;990.18;;;14.05;100
75089;BME280;63673;49.928;8.150;2023-05-07T04:18:20;990.24;;;14.05;100
75089;BME280;63673;49.928;8.150;2023-05-07T04:19:22;990.22;;;14.06;100
75089;BME280;63673;49.928;8.150;2023-05-07T04:20:24;990.22;;;14.06;100
75089;BME280;63673;49.928;8.150;2023-05-07T04:21:25;990.22;;;14.07;100
75089;BME280;63673;49.928;8.150;2023-05-07T04:22:27;990.25;;;14.08;100
75089;BME280;63673;49.928;8.150;2023-05-07T04:23:29;990.26;;;14.08;100
75089;BME280;63673;49.928;8.150;2023-05-07T04:24:31;990.26;;;14.08;100
75089;BME280;63673;49.928;8.150;2023-05-07T04:25:32;990.27;;;14.08;100
75089;BME280;63673;49.928;8.150;2023-05-07T04:26:34;990.3;;;14.08;100
75089;BME280;63673;49.928;8.150;2023-05-07T04:27:36;990.3;;;14.08;100
75089;BME280;63673;49.928;8.150;2023-05-07T04:28:37;990.27;;;14.08;100
75089;BME280;63673;49.928;8.150;2023-05-07T04:29:39;990.26;;;14.08;100
75089;BME280;63673;49.928;8.150;2023-05-07T04:30:41;990.29;;;14.08;100
75089;BME280;63673;49.928;8.150;2023-05-07T04:31:43;990.28;;;14.08;100
75089;BME280;63673;49.928;8.150;2023-05-07T04:32:44;990.3;;;14.08;100
75089;BME280;63673;49.928;8.150;2023-05-07T04:33:46;990.31;;;14.08;100
75089;BME280;63673;49.928;8.150;2023-05-07T04:34:48;990.34;;;14.08;100
75089;BME280;63673;49.928;8.150;2023-05-07T04:35:50;990.34;;;14.08;100
75089;BME280;63673;49.928;8.150;2023-05-07T04:36:51;990.34;;;14.08;100
75089;BME280;63673;49.928;8.150;2023-05-07T04:37:53;990.31;;;14.08;100
75089;BME280;63673;49.928;8.150;2023-05-07T04:38:55;990.29;;;14.09;100
75089;BME280;63673;49.928;8.150;2023-05-07T04:39:56;990.26;;;14.1;100
75089;BME280;63673;49.928;8.150;2023-05-07T04:41:02;990.32;;;14.1;100
75089;BME280;63673;49.928;8.150;2023-05-07T04:42:00;990.28;;;14.11;100
75089;BME280;63673;49.928;8.150;2023-05-07T04:43:02;990.29;;;14.12;100
75089;BME280;63673;49.928;8.150;2023-05-07T04:44:03;990.26;;;14.13;100
75089;BME280;63673;49.928;8.150;2023-05-07T04:45:05;990.25;;;14.13;100
75089;BME280;63673;49.928;8.150;2023-05-07T04:46:07;990.29;;;14.14;100
75089;BME280;63673;49.928;8.150;2023-05-07T04:47:09;990.29;;;14.15;100
75089;BME280;63673;49.928;8.150;2023-05-07T04:48:10;990.29;;;14.15;100
75089;BME280;63673;49.928;8.150;2023-05-07T04:49:12;990.28;;;14.16;100
75089;BME280;63673;49.928;8.150;2023-05-07T04:50:14;990.25;;;14.17;100
75089;BME280;63673;49.928;8.150;2023-05-07T04:51:16;990.31;;;14.18;100
75089;BME280;63673;49.928;8.150;2023-05-07T04:52:17;990.28;;;14.19;100
75089;BME280;63673;49.928;8.150;2023-05-07T04:53:19;990.3;;;14.2;100
75089;BME280;63673;49.928;8.150;2023-05-07T04:54:21;990.33;;;14.21;100
75089;BME280;63673;49.928;8.150;2023-05-07T04:55:22;990.29;;;14.23;100
75089;BME280;63673;49.928;8.150;2023-05-07T04:56:27;990.22;;;14.24;100
75089;BME280;63673;49.928;8.150;2023-05-07T04:57:26;990.32;;;14.24;100
75089;BME280;63673;49.928;8.150;2023-05-07T04:58:28;990.31;;;14.26;100
75089;BME280;63673;49.928;8.150;2023-05-07T04:59:29;990.29;;;14.27;100
75089;BME280;63673;49.928;8.150;2023-05-07T05:00:31;990.33;;;14.27;100
75089;BME280;63673;49.928;8.150;2023-05-07T05:01:33;990.39;;;14.27;100
75089;BME280;63673;49.928;8.150;2023-05-07T05:02:35;990.39;;;14.29;100
75089;BME280;63673;49.928;8.150;2023-05-07T05:03:36;990.4;;;14.29;100
75089;BME280;63673;49.928;8.150;2023-05-07T05:04:38;990.38;;;14.3;100
75089;BME280;63673;49.928;8.150;2023-05-07T05:05:40;990.35;;;14.3;100
75089;BME280;63673;49.928;8.150;2023-05-07T05:06:42;990.41;;;14.3;100
75089;BME280;63673;49.928;8.150;2023-05-07T05:07:43;990.41;;;14.3;100
75089;BME280;63673;49.928;8.150;2023-05-07T05:08:45;990.45;;;14.31;100
75089;BME280;63673;49.928;8.150;2023-05-07T05:09:47;990.45;;;14.31;100
75089;BME280;63673;49.928;8.150;2023-05-07T05:10:49;990.44;;;14.31;100
75089;BME280;63673;49.928;8.150;2023-05-07T05:11:50;990.49;;;14.31;100
75089;BME280;63673;49.928;8.150;2023-05-07T05:12:52;990.53;;;14.3;100
75089;BME280;63673;49.928;8.150;2023-05-07T05:13:54;990.49;;;14.3;100
75089;BME280;63673;49.928;8.150;2023-05-07T05:14:55;990.5;;;14.31;100
75089;BME280;63673;49.928;8.150;2023-05-07T05:15:57;990.52;;;14.32;100
75089;BME280;63673;49.928;8.150;2023-05-07T05:16:59;990.52;;;14.31;100
75089;BME280;63673;49.928;8.150;2023-05-07T05:18:01;990.56;;;14.32;100
75089;BME280;63673;49.928;8.150;2023-05-07T05:19:02;990.54;;;14.33;100
75089;BME280;63673;49.928;8.150;2023-05-07T05:20:05;990.55;;;14.33;100
75089;BME280;63673;49.928;8.150;2023-05-07T05:21:06;990.6;;;14.33;100
75089;BME280;63673;49.928;8.150;2023-05-07T05:22:08;990.57;;;14.35;100
75089;BME280;63673;49.928;8.150;2023-05-07T05:23:09;990.56;;;14.36;100
75089;BME280;63673;49.928;8.150;2023-05-07T05:24:11;990.56;;;14.37;100
75089;BME280;63673;49.928;8.150;2023-05-07T05:25:13;990.59;;;14.4;100
75089;BME280;63673;49.928;8.150;2023-05-07T05:26:15;990.58;;;14.41;100
75089;BME280;63673;49.928;8.150;2023-05-07T05:27:16;990.58;;;14.42;100
75089;BME280;63673;49.928;8.150;2023-05-07T05:28:18;990.6;;;14.44;100
75089;BME280;63673;49.928;8.150;2023-05-07T05:29:20;990.63;;;14.47;100
75089;BME280;63673;49.928;8.150;2023-05-07T05:30:22;990.59;;;14.5;100
75089;BME280;63673;49.928;8.150;2023-05-07T05:31:23;990.6;;;14.52;100
75089;BME280;63673;49.928;8.150;2023-05-07T05:32:25;990.61;;;14.56;100
75089;BME280;63673;49.928;8.150;2023-05-07T05:33:27;990.66;;;14.58;100
75089;BME280;63673;49.928;8.150;2023-05-07T05:34:28;990.67;;;14.61;100
75089;BME280;63673;49.928;8.150;2023-05-07T05:35:30;990.65;;;14.66;100
75089;BME280;63673;49.928;8.150;2023-05-07T05:36:32;990.65;;;14.74;100
75089;BME280;63673;49.928;8.150;2023-05-07T05:37:34;990.71;;;14.81;100
75089;BME280;63673;49.928;8.150;2023-05-07T05:38:35;990.64;;;14.87;100
75089;BME280;63673;49.928;8.150;2023-05-07T05:39:37;990.64;;;14.94;100
75089;BME280;63673;49.928;8.150;2023-05-07T05:40:39;990.64;;;15;100
75089;BME280;63673;49.928;8.150;2023-05-07T05:41:41;990.68;;;15.08;100
75089;BME280;63673;49.928;8.150;2023-05-07T05:42:42;990.7;;;15.15;100
75089;BME280;63673;49.928;8.150;2023-05-07T05:43:44;990.72;;;15.23;100
75089;BME280;63673;49.928;8.150;2023-05-07T05:44:46;990.69;;;15.28;100
75089;BME280;63673;49.928;8.150;2023-05-07T05:45:47;990.74;;;15.34;100
75089;BME280;63673;49.928;8.150;2023-05-07T05:46:49;990.74;;;15.39;100
75089;BME280;63673;49.928;8.150;2023-05-07T05:47:51;990.74;;;15.45;100